Latest Weather Observations for Warburton

IDD60801

Issued at 7:05 am CST Wednesday 26 November 2014 (issued every 30 minutes, with the page automatically refreshed every 10 minutes)

About weather observations | Map of weather stations | Latest weather observations for NT | Other Formats
Station Details ID: 013011 Name: WARBURTON AIRFIELD Lat: -26.13 Lon: 126.58 Height: 459.0 m
Data from the previous 72 hours. | See also: Recent months at Warburton
Date/Time
CST
Temp
°C
App
Temp
°C
Dew
Point
Rel
Hum
%
Delta-T
°C
Wind Press
QNH
hPa
Press
MSL
hPa
Rain
since 9 am
mm
Dir
 
Spd
km/h
Gust
km/h
Spd
kts
Gust
kts
26/07:00am 24.5 18.7 4.3 27 10.2 E 24 35 13 19 1016.2 - 0.0
26/06:30am 24.2 18.4 4.6 28 10.0 E 24 30 13 16 1015.9 - 0.0
26/06:00am 24.3 18.9 4.6 28 10.0 ESE 22 32 12 17 1015.8 - 0.0
26/05:30am 24.3 19.5 4.6 28 10.0 ESE 19 28 10 15 1015.7 - 0.0
26/05:00am 24.4 19.4 4.7 28 10.1 E 20 32 11 17 1015.4 - 0.0
26/04:30am 24.5 18.4 4.8 28 10.1 ESE 26 35 14 19 1015.2 1012.2 0.0
26/04:00am 24.7 18.6 5.0 28 10.1 ESE 26 37 14 20 1015.2 - 0.0
26/03:30am 24.8 19.1 5.1 28 10.2 ESE 24 35 13 19 1015.2 - 0.0
26/03:00am 24.9 19.3 5.2 28 10.2 ESE 24 37 13 20 1015.1 - 0.0
26/02:30am 25.1 19.1 5.3 28 10.3 ESE 26 39 14 21 1015.1 - 0.0
26/02:00am 25.2 20.0 5.4 28 10.3 ESE 22 32 12 17 1015.3 - 0.0
26/01:30am 25.4 19.8 5.6 28 10.3 ESE 24 32 13 17 1015.6 1012.7 0.0
26/01:00am 25.7 20.6 5.8 28 10.5 ESE 22 33 12 18 1015.9 - 0.0
26/12:30am 26.0 21.3 6.1 28 10.5 ESE 20 30 11 16 1016.1 - 0.0
26/12:00am 26.3 21.7 6.3 28 10.6 ESE 20 28 11 15 1016.1 - 0.0
 
Date/Time
CST
Temp
°C
App
Temp
°C
Dew
Point
Rel
Hum
%
Delta-T
°C
Wind Press
QNH
hPa
Press
MSL
hPa
Rain
since 9 am
mm
Dir
 
Spd
km/h
Gust
km/h
Spd
kts
Gust
kts
25/11:30pm 26.7 21.8 6.7 28 10.7 ESE 22 32 12 17 1016.2 - 0.0
25/11:00pm 27.1 22.2 7.0 28 10.9 ESE 22 30 12 16 1016.3 - 0.0
25/10:30pm 27.5 22.7 7.4 28 11.0 ESE 22 37 12 20 1016.2 1013.3 0.0
25/10:00pm 27.9 23.5 7.2 27 11.3 ESE 20 30 11 16 1016.4 - 0.0
25/09:30pm 28.2 23.8 7.4 27 11.4 SE 20 28 11 15 1016.4 - 0.0
25/09:00pm 28.1 24.6 7.4 27 11.3 SE 15 17 8 9 1016.2 - 0.0
25/08:30pm 28.4 25.4 7.6 27 11.4 SE 13 17 7 9 1015.9 - 0.0
25/08:00pm 29.3 25.0 7.2 25 12.1 SE 19 26 10 14 1015.5 - 0.0
25/07:30pm 30.1 25.7 7.3 24 12.6 SSE 20 30 11 16 1015.5 1012.5 0.0
25/07:00pm 31.0 26.7 6.8 22 13.3 SSE 19 26 10 14 1015.6 - 0.0
25/06:30pm 31.3 26.3 6.4 21 13.6 S 22 30 12 16 1015.5 - 0.0
25/06:00pm 31.1 26.8 6.9 22 13.3 S 19 26 10 14 1015.6 - 0.0
25/05:30pm 30.7 26.0 5.9 21 13.4 SSE 20 30 11 16 1015.8 - 0.0
25/05:00pm 31.2 27.0 5.6 20 13.8 S 17 24 9 13 1016.0 - 0.0
25/04:30pm 31.5 27.7 5.8 20 13.9 SSE 15 22 8 12 1016.2 1013.3 0.0
25/04:00pm 31.4 28.0 5.8 20 13.9 S 13 20 7 11 1016.3 - 0.0
25/03:30pm 31.4 27.6 5.8 20 13.9 SSE 15 22 8 12 1016.4 - 0.0
25/03:00pm 31.6 27.7 5.2 19 14.2 SE 15 28 8 15 1016.6 - 0.0
25/02:30pm 31.4 27.8 5.0 19 14.1 SE 13 22 7 12 1017.1 - 0.0
25/02:00pm 31.0 27.1 5.4 20 13.8 ESE 15 30 8 16 1017.3 - 0.0
25/01:30pm 31.0 26.7 5.4 20 13.7 SE 17 30 9 16 1017.7 1014.8 0.0
25/01:00pm 30.7 26.4 5.2 20 13.6 E 17 26 9 14 1018.4 - 0.0
25/12:30pm 29.5 24.6 4.9 21 13.0 ESE 20 30 11 16 1018.7 - 0.0
25/12:00pm 28.7 23.9 5.5 23 12.3 ESE 20 30 11 16 1019.2 - 0.0
25/11:30am 27.4 22.6 5.6 25 11.5 ESE 20 32 11 17 1019.6 - 0.0
25/11:00am 26.4 21.6 5.4 26 11.0 SE 20 32 11 17 1019.6 - 0.0
25/10:30am 25.3 19.3 5.5 28 10.3 ESE 26 39 14 21 1019.3 1016.3 0.0
25/10:00am 24.7 18.8 6.0 30 9.8 SE 26 33 14 18 1019.4 - 0.0
25/09:30am 24.6 18.7 5.9 30 9.8 ESE 26 35 14 19 1019.4 - 0.0
25/09:00am 23.1 16.0 5.5 32 9.1 ESE 32 41 17 22 1018.9 - 0.0
25/08:30am 23.7 16.7 6.0 32 9.2 ESE 32 43 17 23 1018.8 - 0.0
25/08:00am 22.1 15.0 5.5 34 8.5 ESE 32 46 17 25 1018.4 - 0.0
25/07:30am 21.7 15.4 5.6 35 8.2 SE 28 41 15 22 1018.2 1015.3 0.0
25/07:00am 21.6 15.7 5.9 36 8.1 ESE 26 37 14 20 1017.8 - 0.0
25/06:30am 21.0 15.3 6.5 39 7.5 ESE 26 37 14 20 1017.3 - 0.0
25/06:00am 20.9 14.8 6.4 39 7.5 ESE 28 37 15 20 1016.9 - 0.0
25/05:30am 21.4 16.0 6.5 38 7.7 ESE 24 35 13 19 1016.5 - 0.0
25/05:00am 21.9 16.2 6.6 37 8.0 ESE 26 33 14 18 1016.2 - 0.0
25/04:30am 22.3 16.6 6.5 36 8.2 ESE 26 35 14 19 1016.0 1013.1 0.0
25/04:00am 22.5 17.6 6.7 36 8.3 ESE 22 32 12 17 1016.2 - 0.0
25/03:30am 22.7 17.4 6.9 36 8.3 ESE 24 32 13 17 1016.3 - 0.0
25/03:00am 22.9 17.6 7.0 36 8.4 SE 24 32 13 17 1016.1 - 0.0
25/02:30am 23.2 18.8 7.3 36 8.5 SE 20 32 11 17 1016.1 - 0.0
25/02:00am 23.4 19.2 7.5 36 8.5 SE 19 28 10 15 1016.2 - 0.0
25/01:30am 23.9 19.2 7.9 36 8.6 SE 22 33 12 18 1016.1 1013.2 0.0
25/01:00am 24.4 19.9 8.4 36 8.7 SE 22 32 12 17 1016.4 - 0.0
25/12:30am 25.0 20.5 8.5 35 9.1 SE 22 30 12 16 1016.6 - 0.0
25/12:00am 25.4 21.5 8.8 35 9.2 SE 19 26 10 14 1016.7 - 0.0
 
Date/Time
CST
Temp
°C
App
Temp
°C
Dew
Point
Rel
Hum
%
Delta-T
°C
Wind Press
QNH
hPa
Press
MSL
hPa
Rain
since 9 am
mm
Dir
 
Spd
km/h
Gust
km/h
Spd
kts
Gust
kts
24/11:30pm 25.8 21.7 8.8 34 9.4 ESE 20 28 11 15 1017.0 - 0.0
24/11:00pm 26.0 22.0 8.9 34 9.5 SE 20 32 11 17 1016.9 - 0.0
24/10:30pm 26.2 22.3 9.5 35 9.4 SE 20 26 11 14 1016.6 1013.7 0.0
24/10:00pm 26.5 22.6 9.4 34 9.6 SE 20 28 11 15 1016.5 - 0.0
24/09:30pm 26.7 23.0 9.5 34 9.7 SE 19 28 10 15 1016.4 - 0.0
24/09:00pm 27.0 22.8 9.8 34 9.7 SE 22 30 12 16 1016.1 - 0.0
24/08:30pm 27.4 23.3 10.2 34 9.8 SE 22 30 12 16 1015.8 - 0.0
24/08:00pm 28.2 23.9 9.5 31 10.6 SE 22 32 12 17 1015.4 - 0.0
24/07:30pm 28.9 24.3 9.6 30 11.0 SE 24 37 13 20 1015.2 1012.2 0.0
24/07:00pm 29.7 24.2 9.3 28 11.6 SE 28 35 15 19 1014.8 - 0.0
24/06:30pm 30.4 24.7 9.8 28 11.9 ESE 30 41 16 22 1014.3 - 0.0
24/06:00pm 31.4 25.4 10.2 27 12.3 ESE 32 43 17 23 1014.0 - 0.0
24/05:36pm 31.3 25.3 10.1 27 12.3 SE 32 50 17 27 1014.2 - 0.0
24/05:30pm 31.6 25.5 10.3 27 12.4 SE 33 50 18 27 1014.2 - 0.0
24/05:00pm 30.8 25.2 10.2 28 12.0 SE 30 41 16 22 1014.7 - 0.0
24/04:30pm 31.0 24.9 9.8 27 12.2 ESE 32 44 17 24 1015.1 1012.1 0.0
24/04:00pm 30.7 25.8 10.1 28 11.9 SE 26 35 14 19 1015.6 - 0.0
24/03:30pm 30.4 25.8 10.9 30 11.4 SE 26 35 14 19 1015.8 - 0.0
24/03:00pm 29.5 24.0 10.6 31 11.0 ESE 30 41 16 22 1015.8 - 0.0
24/02:30pm 29.5 24.0 10.6 31 11.0 SSE 30 41 16 22 1016.5 - 0.0
24/02:00pm 30.1 24.8 11.1 31 11.2 SSE 30 43 16 23 1016.4 - 0.0
24/01:30pm 31.4 26.5 11.2 29 11.9 SE 28 39 15 21 1016.6 1013.7 0.0
24/01:00pm 30.7 25.2 10.6 29 11.7 SSE 30 43 16 23 1017.2 - 0.0
24/12:52pm 31.9 26.8 10.6 27 12.5 SSE 28 46 15 25 1017.4 - 0.0
24/12:30pm 30.3 26.0 10.8 30 11.4 S 24 35 13 19 1017.9 - 0.0
24/12:00pm 30.1 24.6 10.6 30 11.4 ESE 30 43 16 23 1016.7 - 0.0
24/11:37am 29.6 24.1 10.7 31 11.0 SE 30 50 16 27 1017.1 - 0.0
24/11:30am 29.3 23.8 10.4 31 10.9 ESE 30 44 16 24 1017.2 - 0.0
24/11:00am 29.3 24.3 10.9 32 10.7 SE 28 46 15 25 1017.4 - 0.0
24/10:54am 28.9 23.9 11.0 33 10.4 SE 28 46 15 25 1017.3 - 0.0
24/10:30am 27.9 22.5 11.0 35 9.8 SE 30 44 16 24 1017.3 1014.3 0.0
24/10:00am 27.5 22.4 10.7 35 9.7 SE 28 41 15 22 1017.3 - 0.0
24/09:30am 26.2 20.3 10.4 37 9.0 SE 32 41 17 22 1017.2 - 0.0
24/09:00am 25.7 19.6 10.3 38 8.7 SE 33 44 18 24 1016.9 - 0.0
24/08:30am 24.9 19.0 11.1 42 7.9 SE 33 48 18 26 1016.6 - 0.0
24/08:24am 24.5 19.1 10.8 42 7.8 SSE 30 48 16 26 1016.5 - 0.0
24/08:00am 24.3 18.6 11.3 44 7.5 SSE 32 43 17 23 1016.2 - 0.0
24/07:30am 23.5 18.6 11.2 46 7.0 SSE 28 39 15 21 1015.7 1012.8 0.0
24/07:00am 23.3 18.0 11.4 47 6.8 SSE 30 39 16 21 1015.1 - 0.0
24/06:30am 23.5 18.5 12.2 49 6.6 SSE 30 44 16 24 1014.4 - 0.0
24/06:00am 24.5 19.7 11.8 45 7.4 SE 28 39 15 21 1014.0 - 0.0
24/05:30am 25.4 20.8 9.7 37 8.8 SE 24 35 13 19 1013.2 - 0.0
24/05:00am 26.1 20.9 9.0 34 9.5 SSE 26 39 14 21 1012.9 - 0.0
24/04:30am 27.0 21.7 8.4 31 10.3 SSE 26 35 14 19 1012.5 1009.5 0.0
24/04:00am 27.8 22.8 8.1 29 10.9 SE 24 35 13 19 1012.5 - 0.0
24/03:30am 28.6 24.3 7.8 27 11.5 SSE 20 28 11 15 1012.4 - 0.0
24/03:00am 29.2 25.4 7.7 26 11.9 S 17 24 9 13 1012.0 - 0.0
24/02:30am 30.0 24.9 7.8 25 12.4 SSE 24 39 13 21 1011.3 - 0.0
24/02:00am 30.8 25.2 7.3 23 13.0 SSE 26 37 14 20 1011.0 - 0.0
24/01:30am 31.3 26.7 6.4 21 13.6 SSE 20 30 11 16 1011.3 1008.3 0.0
24/01:00am 31.7 27.2 6.0 20 14.0 S 19 28 10 15 1011.2 - 0.0
24/12:30am 31.3 27.8 7.1 22 13.4 S 15 20 8 11 1011.2 - 0.0
24/12:00am 31.9 28.3 6.9 21 13.8 SW 15 17 8 9 1011.5 - 0.0
 
Date/Time
CST
Temp
°C
App
Temp
°C
Dew
Point
Rel
Hum
%
Delta-T
°C
Wind Press
QNH
hPa
Press
MSL
hPa
Rain
since 9 am
mm
Dir
 
Spd
km/h
Gust
km/h
Spd
kts
Gust
kts
23/11:30pm 32.2 30.0 6.4 20 14.2 WSW 7 15 4 8 1011.9 - 0.0
23/11:00pm 33.4 29.4 5.0 17 15.4 NE 15 22 8 12 1011.7 - 0.0
23/10:30pm 33.5 28.2 5.1 17 15.4 N 22 32 12 17 1011.8 1008.9 0.0
23/10:00pm 34.0 26.7 5.5 17 15.6 W 33 54 18 29 1012.5 - 0.0
23/09:35pm 35.0 27.3 2.5 13 17.0 SW 32 50 17 27 1011.1 - 0.0
23/09:30pm 35.0 27.1 2.5 13 17.0 SW 33 50 18 27 1011.1 - 0.0
23/09:00pm 35.9 28.7 0.9 11 18.0 SW 28 35 15 19 1010.2 - 0.0
23/08:30pm 35.7 29.6 0.7 11 17.9 WSW 22 30 12 16 1009.5 - 0.0
23/08:00pm 35.8 31.1 0.8 11 18.0 WSW 15 22 8 12 1009.3 - 0.0
23/07:30pm 36.4 31.6 2.4 12 18.0 W 17 22 9 12 1008.8 1005.8 0.0
23/07:00pm 37.0 32.4 1.7 11 18.5 W 15 22 8 12 1008.4 - 0.0
23/06:30pm 37.5 32.0 2.1 11 18.7 W 20 28 11 15 1008.1 - 0.0
23/06:00pm 37.8 32.0 2.3 11 18.9 WNW 22 30 12 16 1007.8 - 0.0
23/05:30pm 38.3 32.4 3.9 12 18.8 WNW 24 32 13 17 1007.7 - 0.0
23/05:00pm 38.8 32.0 3.1 11 19.3 W 28 37 15 20 1007.7 - 0.0
23/04:37pm 38.7 30.8 4.2 12 18.9 WNW 35 54 19 29 1007.9 - 0.0
23/04:30pm 39.0 30.1 3.2 11 19.4 WNW 39 56 21 30 1007.9 1004.9 0.0
23/04:20pm 38.9 31.3 3.1 11 19.4 NW 32 50 17 27 1007.8 - 0.0
23/04:00pm 38.7 33.2 4.2 12 18.9 NW 22 33 12 18 1008.0 - 0.0
23/03:30pm 38.0 31.7 3.7 12 18.6 W 26 50 14 27 1008.3 - 0.0
23/03:22pm 38.5 32.1 5.2 13 18.5 NW 28 50 15 27 1008.4 - 0.0
23/03:00pm 37.7 31.8 5.6 14 17.9 NW 26 37 14 20 1008.7 - 0.0
23/02:30pm 38.4 32.7 5.1 13 18.5 NW 24 33 13 18 1008.6 - 0.0
23/02:00pm 38.3 32.5 6.1 14 18.2 NW 26 41 14 22 1008.9 - 0.0
23/01:30pm 38.6 32.8 6.3 14 18.3 NNW 26 43 14 23 1009.2 1006.2 0.0
23/01:00pm 39.0 33.3 6.7 14 18.4 NNW 26 35 14 19 1009.8 - 0.0
23/12:30pm 37.5 31.6 7.4 16 17.2 NNW 28 39 15 21 1010.3 - 0.0
23/12:00pm 38.1 31.9 7.9 16 17.5 NNW 30 46 16 25 1010.6 - 0.0
23/11:30am 36.8 31.4 7.8 17 16.7 NW 26 41 14 22 1011.0 - 0.0
23/11:00am 36.0 30.6 8.0 18 16.1 NW 26 37 14 20 1011.3 - 0.0
23/10:30am 35.8 30.4 7.8 18 16.0 NW 26 37 14 20 1011.2 1008.2 0.0
23/10:00am 35.4 30.8 8.3 19 15.6 WNW 22 32 12 17 1011.1 - 0.0
23/09:30am 33.8 28.3 9.1 22 14.3 NW 28 37 15 20 1011.1 - 0.0
23/09:00am 33.0 28.2 10.4 25 13.3 NW 26 35 14 19 1011.2 - 0.0

Other Formats:

Comma delimited format used in spreadsheet applications
http://www.bom.gov.au/fwo/IDD60801/IDD60801.94457.axf

JavaScript Object Notation format (JSON) in row-major order
http://www.bom.gov.au/fwo/IDD60801/IDD60801.94457.json